createdAt,value
2023-01-08T00:01:59.737Z,66.23
2023-01-08T00:06:56.521Z,66.61
2023-01-08T00:11:53.352Z,66.31
2023-01-08T00:16:51.373Z,66.67
2023-01-08T00:21:48.163Z,66.11
2023-01-08T00:26:44.903Z,66.30
2023-01-08T00:31:41.743Z,65.88
2023-01-08T00:36:39.236Z,66.07
2023-01-08T00:41:36.076Z,66.25
2023-01-08T00:46:32.884Z,65.81
2023-01-08T00:51:29.754Z,65.75
2023-01-08T00:56:27.167Z,65.47
2023-01-08T01:01:24.156Z,65.95
2023-01-08T01:06:21.541Z,66.07
2023-01-08T01:11:21.019Z,65.96
2023-01-08T01:16:18.847Z,66.70
2023-01-08T01:21:22.385Z,67.08
2023-01-08T01:26:20.941Z,67.51
2023-01-08T01:31:19.457Z,68.86
2023-01-08T01:36:17.970Z,70.81
2023-01-08T01:41:23.247Z,73.12
2023-01-08T01:46:28.059Z,74.46
2023-01-08T01:51:31.225Z,74.61
2023-01-08T01:56:28.987Z,75.38
2023-01-08T02:01:27.292Z,73.97
2023-01-08T02:06:35.083Z,73.28
2023-01-08T02:11:42.782Z,72.44
2023-01-08T02:16:46.369Z,71.45
2023-01-08T02:21:53.509Z,70.99
2023-01-08T02:26:55.388Z,71.52
2023-01-08T02:31:52.494Z,70.88
2023-01-08T02:36:51.286Z,71.90
2023-01-08T02:41:57.152Z,72.22
2023-01-08T02:46:57.224Z,71.98
2023-01-08T02:51:56.998Z,72.28
2023-01-08T02:56:59.202Z,72.04
2023-01-08T03:01:56.881Z,70.99
2023-01-08T03:06:53.916Z,70.47
2023-01-08T03:11:58.092Z,69.92
2023-01-08T03:17:00.447Z,69.82
2023-01-08T03:21:58.249Z,69.83
2023-01-08T03:26:59.347Z,69.24
2023-01-08T03:32:02.911Z,69.63
2023-01-08T03:37:04.401Z,68.80
2023-01-08T03:42:07.657Z,69.64
2023-01-08T03:47:06.661Z,69.38
2023-01-08T03:52:03.643Z,69.86
2023-01-08T03:57:01.218Z,69.70
2023-01-08T04:01:58.137Z,69.73
2023-01-08T04:06:55.018Z,70.53
2023-01-08T04:11:51.997Z,71.62
2023-01-08T04:16:49.715Z,73.82
2023-01-08T04:21:46.640Z,73.86
2023-01-08T04:26:43.518Z,73.37
2023-01-08T04:31:40.509Z,71.84
2023-01-08T04:36:38.139Z,70.43
2023-01-08T04:41:34.971Z,70.39
2023-01-08T04:46:31.811Z,70.13
2023-01-08T04:51:28.673Z,69.45
2023-01-08T04:56:26.315Z,68.83
2023-01-08T05:01:25.421Z,68.31
2023-01-08T05:06:22.397Z,68.03
2023-01-08T05:11:19.366Z,69.40
2023-01-08T05:16:17.391Z,72.20
2023-01-08T05:21:14.765Z,74.42
2023-01-08T05:26:11.662Z,75.45
2023-01-08T05:31:08.560Z,76.03
2023-01-08T05:36:07.713Z,76.63
2023-01-08T05:41:05.487Z,77.32
2023-01-08T05:46:03.577Z,78.12
2023-01-08T05:51:00.660Z,78.43
2023-01-08T05:56:02.370Z,78.64
2023-01-08T06:01:04.523Z,78.41
2023-01-08T06:06:03.260Z,78.37
2023-01-08T06:11:01.296Z,78.77
2023-01-08T06:15:58.835Z,79.54
2023-01-08T06:20:55.955Z,80.08
2023-01-08T06:25:53.722Z,80.78
2023-01-08T06:30:52.029Z,80.36
2023-01-08T06:35:49.185Z,79.51
2023-01-08T06:40:46.223Z,78.39
2023-01-08T06:45:43.184Z,77.22
2023-01-08T06:50:40.847Z,76.51
2023-01-08T06:55:40.258Z,75.58
2023-01-08T07:00:38.343Z,73.47
2023-01-08T07:05:36.044Z,73.22
2023-01-08T07:10:35.592Z,72.92
2023-01-08T07:15:32.386Z,72.69
2023-01-08T07:20:30.204Z,72.46
2023-01-08T07:25:27.060Z,72.61
2023-01-08T07:30:30.036Z,72.03
2023-01-08T07:35:27.907Z,71.04
2023-01-08T07:40:24.797Z,70.78
2023-01-08T07:45:21.848Z,71.70
2023-01-08T07:50:20.122Z,72.68
2023-01-08T07:55:16.956Z,73.21
2023-01-08T08:00:14.714Z,73.37
2023-01-08T08:05:11.560Z,73.84
2023-01-08T08:10:11.327Z,74.06
2023-01-08T08:15:09.557Z,74.53
2023-01-08T08:20:07.601Z,74.98
2023-01-08T08:25:05.212Z,75.22
2023-01-08T08:30:03.604Z,76.16
2023-01-08T08:35:00.643Z,76.25
2023-01-08T08:39:57.452Z,76.75
2023-01-08T08:44:54.474Z,76.62
2023-01-08T08:49:52.063Z,77.16
2023-01-08T08:54:48.871Z,76.42
2023-01-08T08:59:45.799Z,76.56
2023-01-08T09:04:42.919Z,76.16
2023-01-08T09:09:41.437Z,75.50
2023-01-08T09:14:38.419Z,75.02
2023-01-08T09:19:35.359Z,73.89
2023-01-08T09:24:32.612Z,73.72
2023-01-08T09:29:30.178Z,73.70
2023-01-08T09:34:27.115Z,72.81
2023-01-08T09:39:24.090Z,72.64
2023-01-08T09:44:26.075Z,72.63
2023-01-08T09:49:28.961Z,72.52
2023-01-08T09:54:27.086Z,72.25
2023-01-08T09:59:24.142Z,71.65
2023-01-08T10:04:25.671Z,71.86
2023-01-08T10:09:26.822Z,70.91
2023-01-08T10:14:26.053Z,70.78
2023-01-08T10:19:28.933Z,70.20
2023-01-08T10:24:33.930Z,69.61
2023-01-08T10:29:33.046Z,68.62
2023-01-08T10:34:52.065Z,68.04
2023-01-08T10:39:53.281Z,67.75
2023-01-08T10:45:01.935Z,67.59
2023-01-08T10:50:01.204Z,67.45
2023-01-08T10:54:58.330Z,67.03
2023-01-08T10:59:55.925Z,66.34
2023-01-08T11:04:53.017Z,65.86
2023-01-08T11:09:53.226Z,65.90
2023-01-08T11:14:51.730Z,66.44
2023-01-08T11:19:48.585Z,66.06
2023-01-08T11:24:46.408Z,64.19
2023-01-08T11:29:47.253Z,63.23
2023-01-08T11:34:51.212Z,64.06
2023-01-08T11:39:48.395Z,63.40
2023-01-08T11:44:57.970Z,62.20
2023-01-08T11:50:09.821Z,62.37
2023-01-08T11:55:19.895Z,61.61
2023-01-08T12:00:34.569Z,61.28
2023-01-08T12:05:40.342Z,59.68
2023-01-08T12:10:55.372Z,59.32
2023-01-08T12:16:07.109Z,58.92
2023-01-08T12:21:13.429Z,59.50
2023-01-08T12:26:19.637Z,59.39
2023-01-08T12:31:44.309Z,59.22
2023-01-08T12:36:48.755Z,59.52
2023-01-08T12:41:48.141Z,59.18
2023-01-08T12:46:45.988Z,59.48
2023-01-08T12:51:58.729Z,59.44
2023-01-08T12:57:06.573Z,59.87
2023-01-08T13:02:21.358Z,60.02
2023-01-08T13:07:21.412Z,60.21
2023-01-08T13:12:34.142Z,60.12
2023-01-08T13:17:32.315Z,60.18
2023-01-08T13:22:31.758Z,60.39
2023-01-08T13:27:32.127Z,60.68
2023-01-08T13:32:41.906Z,60.42
2023-01-08T13:37:38.853Z,60.25
2023-01-08T13:42:41.807Z,61.27
2023-01-08T13:47:46.080Z,61.91
2023-01-08T13:52:45.866Z,62.34
2023-01-08T13:57:46.886Z,62.52
2023-01-08T14:02:50.523Z,62.64
2023-01-08T14:07:48.532Z,62.83
2023-01-08T14:12:47.118Z,63.09
2023-01-08T14:17:45.747Z,63.45
2023-01-08T14:22:43.621Z,63.58
2023-01-08T14:27:41.451Z,63.82
2023-01-08T14:32:43.598Z,63.68
2023-01-08T14:37:42.088Z,64.13
2023-01-08T14:42:42.052Z,64.58
2023-01-08T14:47:45.273Z,64.91
2023-01-08T14:52:44.436Z,65.57
2023-01-08T14:57:46.704Z,66.01
2023-01-08T15:02:47.419Z,66.45
2023-01-08T15:07:59.880Z,67.23
2023-01-08T15:13:00.291Z,68.16
2023-01-08T15:18:01.980Z,68.52
2023-01-08T15:23:04.854Z,69.00
2023-01-08T15:28:05.440Z,69.29
2023-01-08T15:33:08.542Z,69.63
2023-01-08T15:38:20.305Z,70.41
2023-01-08T15:43:18.827Z,71.00
2023-01-08T15:48:16.261Z,71.64
2023-01-08T15:53:17.859Z,71.52
2023-01-08T15:58:16.078Z,72.03
2023-01-08T16:03:14.408Z,73.32
2023-01-08T16:08:11.776Z,74.13
2023-01-08T16:13:11.994Z,74.67
2023-01-08T16:18:09.184Z,75.10
2023-01-08T16:23:06.506Z,74.98
2023-01-08T16:28:04.406Z,75.68
2023-01-08T16:33:02.811Z,76.40
2023-01-08T16:38:00.189Z,76.71
2023-01-08T16:43:00.664Z,77.15
2023-01-08T16:47:58.133Z,77.69
2023-01-08T16:52:55.641Z,77.67
2023-01-08T16:57:55.360Z,78.11
2023-01-08T17:02:52.302Z,78.28
2023-01-08T17:07:51.408Z,78.54
2023-01-08T17:12:50.018Z,79.28
2023-01-08T17:17:47.231Z,79.19
2023-01-08T17:22:44.088Z,79.76
2023-01-08T17:27:41.567Z,80.02
2023-01-08T17:32:40.117Z,80.59
2023-01-08T17:37:37.249Z,80.86
2023-01-08T17:42:34.087Z,80.79
2023-01-08T17:47:31.262Z,81.56
2023-01-08T17:52:30.497Z,81.65
2023-01-08T17:57:30.860Z,82.05
2023-01-08T18:02:30.887Z,82.15
2023-01-08T18:07:28.834Z,82.09
2023-01-08T18:12:25.720Z,82.62
2023-01-08T18:17:23.047Z,83.14
2023-01-08T18:22:19.842Z,83.03
2023-01-08T18:27:17.738Z,83.38
2023-01-08T18:32:15.440Z,82.66
2023-01-08T18:37:13.181Z,83.59
2023-01-08T18:42:29.736Z,83.39
2023-01-08T18:47:28.247Z,83.33
2023-01-08T18:52:26.094Z,82.83
2023-01-08T18:57:23.536Z,83.02
2023-01-08T19:02:24.174Z,82.67
2023-01-08T19:07:21.954Z,82.96
2023-01-08T19:12:19.697Z,83.70
2023-01-08T19:17:16.621Z,84.11
2023-01-08T19:22:14.063Z,84.66
2023-01-08T19:27:11.860Z,84.77
2023-01-08T19:32:09.283Z,84.58
2023-01-08T19:37:09.003Z,84.42
2023-01-08T19:42:24.257Z,84.61
2023-01-08T19:47:23.016Z,84.82
2023-01-08T19:52:20.144Z,84.55
2023-01-08T19:57:21.833Z,84.89
2023-01-08T20:02:21.145Z,85.12
2023-01-08T20:07:18.942Z,85.78
2023-01-08T20:12:16.245Z,85.97
2023-01-08T20:17:14.090Z,85.88
2023-01-08T20:22:11.021Z,85.90
2023-01-08T20:27:10.165Z,85.64
2023-01-08T20:32:07.556Z,85.70
2023-01-08T20:37:05.845Z,85.47
2023-01-08T20:42:04.556Z,85.67
2023-01-08T20:47:02.636Z,86.38
2023-01-08T20:52:00.535Z,86.69
2023-01-08T20:56:58.169Z,86.55
2023-01-08T21:01:56.413Z,85.68
2023-01-08T21:06:54.162Z,85.11
2023-01-08T21:11:53.469Z,84.64
2023-01-08T21:16:50.292Z,84.89
2023-01-08T21:21:47.197Z,85.40
2023-01-08T21:26:45.884Z,86.80
2023-01-08T21:31:42.912Z,87.54
2023-01-08T21:36:39.981Z,88.16
2023-01-08T21:41:55.214Z,88.08
2023-01-08T21:46:54.903Z,88.14
2023-01-08T21:52:09.883Z,88.61
2023-01-08T21:57:07.453Z,88.61
2023-01-08T22:02:06.108Z,88.56
2023-01-08T22:07:03.080Z,89.01
2023-01-08T22:11:59.972Z,89.62
2023-01-08T22:16:56.847Z,89.71
2023-01-08T22:21:54.287Z,89.41
2023-01-08T22:26:51.158Z,88.76
2023-01-08T22:31:48.086Z,88.29
2023-01-08T22:36:49.752Z,87.51
2023-01-08T22:41:47.267Z,87.25
2023-01-08T22:46:44.144Z,86.40
2023-01-08T22:51:41.931Z,86.21
2023-01-08T22:56:38.991Z,86.26
2023-01-08T23:01:37.149Z,85.79
2023-01-08T23:06:34.136Z,84.73
2023-01-08T23:11:32.976Z,82.89
2023-01-08T23:16:29.879Z,82.00
2023-01-08T23:21:27.963Z,81.38
2023-01-08T23:26:27.277Z,81.50
2023-01-08T23:31:26.116Z,81.30
2023-01-08T23:36:23.319Z,81.12
2023-01-08T23:41:22.811Z,81.02
2023-01-08T23:46:19.565Z,80.76
2023-01-08T23:51:16.916Z,80.41
2023-01-08T23:56:14.008Z,80.94
